sensor_id;sensor_type;location;lat;lon;timestamp;P1;durP1;ratioP1;P2;durP2;ratioP2
5199;SDS011;2619;47.868;11.892;2022-08-06T00:01:51;4.33;;;2.83;;
5199;SDS011;2619;47.868;11.892;2022-08-06T00:04:17;4.80;;;3.33;;
5199;SDS011;2619;47.868;11.892;2022-08-06T00:06:44;5.33;;;3.80;;
5199;SDS011;2619;47.868;11.892;2022-08-06T00:09:10;3.87;;;3.27;;
5199;SDS011;2619;47.868;11.892;2022-08-06T00:11:37;3.90;;;3.03;;
5199;SDS011;2619;47.868;11.892;2022-08-06T00:14:06;6.53;;;3.97;;
5199;SDS011;2619;47.868;11.892;2022-08-06T00:16:32;3.37;;;3.07;;
5199;SDS011;2619;47.868;11.892;2022-08-06T00:18:58;3.83;;;3.50;;
5199;SDS011;2619;47.868;11.892;2022-08-06T00:21:24;3.97;;;2.97;;
5199;SDS011;2619;47.868;11.892;2022-08-06T00:23:49;3.67;;;3.37;;
5199;SDS011;2619;47.868;11.892;2022-08-06T00:26:15;5.20;;;3.80;;
5199;SDS011;2619;47.868;11.892;2022-08-06T00:28:41;4.30;;;3.47;;
5199;SDS011;2619;47.868;11.892;2022-08-06T00:31:06;4.20;;;3.20;;
5199;SDS011;2619;47.868;11.892;2022-08-06T00:33:33;4.40;;;3.20;;
5199;SDS011;2619;47.868;11.892;2022-08-06T00:35:59;4.07;;;2.90;;
5199;SDS011;2619;47.868;11.892;2022-08-06T00:38:25;3.27;;;2.47;;
5199;SDS011;2619;47.868;11.892;2022-08-06T00:40:51;3.73;;;2.80;;
5199;SDS011;2619;47.868;11.892;2022-08-06T00:43:17;4.00;;;3.03;;
5199;SDS011;2619;47.868;11.892;2022-08-06T00:45:43;3.50;;;2.73;;
5199;SDS011;2619;47.868;11.892;2022-08-06T00:48:09;4.10;;;2.80;;
5199;SDS011;2619;47.868;11.892;2022-08-06T00:50:35;3.63;;;2.23;;
5199;SDS011;2619;47.868;11.892;2022-08-06T00:53:01;3.00;;;2.50;;
5199;SDS011;2619;47.868;11.892;2022-08-06T00:55:27;3.27;;;2.40;;
5199;SDS011;2619;47.868;11.892;2022-08-06T00:57:54;3.73;;;2.87;;
5199;SDS011;2619;47.868;11.892;2022-08-06T01:00:19;2.70;;;2.10;;
5199;SDS011;2619;47.868;11.892;2022-08-06T01:02:45;2.90;;;2.23;;
5199;SDS011;2619;47.868;11.892;2022-08-06T01:05:11;4.70;;;2.67;;
5199;SDS011;2619;47.868;11.892;2022-08-06T01:07:36;2.80;;;2.10;;
5199;SDS011;2619;47.868;11.892;2022-08-06T01:10:02;3.50;;;2.40;;
5199;SDS011;2619;47.868;11.892;2022-08-06T01:12:28;4.23;;;2.93;;
5199;SDS011;2619;47.868;11.892;2022-08-06T01:14:54;3.50;;;3.10;;
5199;SDS011;2619;47.868;11.892;2022-08-06T01:17:22;6.03;;;3.23;;
5199;SDS011;2619;47.868;11.892;2022-08-06T01:28:23;3.20;;;2.77;;
5199;SDS011;2619;47.868;11.892;2022-08-06T01:30:54;3.50;;;3.00;;
5199;SDS011;2619;47.868;11.892;2022-08-06T01:33:38;4.57;;;3.00;;
5199;SDS011;2619;47.868;11.892;2022-08-06T01:36:19;3.40;;;2.93;;
5199;SDS011;2619;47.868;11.892;2022-08-06T01:38:49;3.83;;;3.20;;
5199;SDS011;2619;47.868;11.892;2022-08-06T01:41:17;3.83;;;3.20;;
5199;SDS011;2619;47.868;11.892;2022-08-06T01:44:25;3.37;;;2.80;;
5199;SDS011;2619;47.868;11.892;2022-08-06T01:46:58;3.43;;;3.03;;
5199;SDS011;2619;47.868;11.892;2022-08-06T01:49:36;4.03;;;3.03;;
5199;SDS011;2619;47.868;11.892;2022-08-06T01:52:04;4.03;;;3.10;;
5199;SDS011;2619;47.868;11.892;2022-08-06T01:54:34;3.57;;;3.10;;
5199;SDS011;2619;47.868;11.892;2022-08-06T01:57:04;4.60;;;2.90;;
5199;SDS011;2619;47.868;11.892;2022-08-06T01:59:32;3.50;;;2.80;;
5199;SDS011;2619;47.868;11.892;2022-08-06T02:02:02;3.20;;;2.70;;
5199;SDS011;2619;47.868;11.892;2022-08-06T02:04:33;3.73;;;2.77;;
5199;SDS011;2619;47.868;11.892;2022-08-06T02:07:03;4.10;;;2.63;;
5199;SDS011;2619;47.868;11.892;2022-08-06T02:09:31;3.47;;;2.67;;
5199;SDS011;2619;47.868;11.892;2022-08-06T02:12:00;3.63;;;2.53;;
5199;SDS011;2619;47.868;11.892;2022-08-06T02:14:29;3.10;;;2.70;;
5199;SDS011;2619;47.868;11.892;2022-08-06T02:16:57;5.20;;;2.73;;
5199;SDS011;2619;47.868;11.892;2022-08-06T02:19:24;3.23;;;2.83;;
5199;SDS011;2619;47.868;11.892;2022-08-06T02:21:53;3.87;;;3.30;;
5199;SDS011;2619;47.868;11.892;2022-08-06T02:24:20;4.97;;;3.53;;
5199;SDS011;2619;47.868;11.892;2022-08-06T02:26:48;5.37;;;3.40;;
5199;SDS011;2619;47.868;11.892;2022-08-06T02:29:16;5.80;;;3.67;;
5199;SDS011;2619;47.868;11.892;2022-08-06T02:31:44;5.70;;;3.20;;
5199;SDS011;2619;47.868;11.892;2022-08-06T02:34:10;3.47;;;2.90;;
5199;SDS011;2619;47.868;11.892;2022-08-06T02:36:37;3.83;;;3.43;;
5199;SDS011;2619;47.868;11.892;2022-08-06T02:39:06;4.90;;;3.90;;
5199;SDS011;2619;47.868;11.892;2022-08-06T02:41:43;4.43;;;4.03;;
5199;SDS011;2619;47.868;11.892;2022-08-06T02:46:48;4.70;;;3.60;;
5199;SDS011;2619;47.868;11.892;2022-08-06T02:49:23;4.10;;;3.50;;
5199;SDS011;2619;47.868;11.892;2022-08-06T02:52:01;4.47;;;3.63;;
5199;SDS011;2619;47.868;11.892;2022-08-06T02:54:40;4.27;;;3.87;;
5199;SDS011;2619;47.868;11.892;2022-08-06T02:57:20;4.27;;;3.80;;
5199;SDS011;2619;47.868;11.892;2022-08-06T02:59:50;4.13;;;3.73;;
5199;SDS011;2619;47.868;11.892;2022-08-06T03:02:20;4.77;;;4.27;;
5199;SDS011;2619;47.868;11.892;2022-08-06T03:04:48;5.17;;;4.30;;
5199;SDS011;2619;47.868;11.892;2022-08-06T03:07:17;5.83;;;4.20;;
5199;SDS011;2619;47.868;11.892;2022-08-06T03:09:45;4.13;;;3.60;;
5199;SDS011;2619;47.868;11.892;2022-08-06T03:12:14;4.30;;;3.33;;
5199;SDS011;2619;47.868;11.892;2022-08-06T03:14:41;4.87;;;4.37;;
5199;SDS011;2619;47.868;11.892;2022-08-06T03:17:10;5.00;;;3.20;;
5199;SDS011;2619;47.868;11.892;2022-08-06T03:19:37;5.00;;;4.00;;
5199;SDS011;2619;47.868;11.892;2022-08-06T03:22:06;4.00;;;3.57;;
5199;SDS011;2619;47.868;11.892;2022-08-06T03:24:34;5.00;;;4.10;;
5199;SDS011;2619;47.868;11.892;2022-08-06T03:27:02;5.80;;;3.87;;
5199;SDS011;2619;47.868;11.892;2022-08-06T03:29:29;4.00;;;3.60;;
5199;SDS011;2619;47.868;11.892;2022-08-06T03:31:57;5.70;;;4.23;;
5199;SDS011;2619;47.868;11.892;2022-08-06T03:34:24;5.27;;;4.03;;
5199;SDS011;2619;47.868;11.892;2022-08-06T03:36:52;5.40;;;5.00;;
5199;SDS011;2619;47.868;11.892;2022-08-06T03:39:20;4.13;;;3.73;;
5199;SDS011;2619;47.868;11.892;2022-08-06T03:41:48;4.53;;;4.10;;
5199;SDS011;2619;47.868;11.892;2022-08-06T03:44:15;4.23;;;3.37;;
5199;SDS011;2619;47.868;11.892;2022-08-06T03:46:45;4.90;;;4.40;;
5199;SDS011;2619;47.868;11.892;2022-08-06T03:49:19;5.70;;;4.03;;
5199;SDS011;2619;47.868;11.892;2022-08-06T03:51:49;4.73;;;3.80;;
5199;SDS011;2619;47.868;11.892;2022-08-06T03:54:19;4.20;;;3.70;;
5199;SDS011;2619;47.868;11.892;2022-08-06T03:57:00;4.57;;;4.17;;
5199;SDS011;2619;47.868;11.892;2022-08-06T03:59:46;4.47;;;4.07;;
5199;SDS011;2619;47.868;11.892;2022-08-06T04:02:14;4.60;;;4.20;;
5199;SDS011;2619;47.868;11.892;2022-08-06T04:04:42;4.60;;;3.63;;
5199;SDS011;2619;47.868;11.892;2022-08-06T04:07:09;3.50;;;3.20;;
5199;SDS011;2619;47.868;11.892;2022-08-06T04:09:35;4.30;;;3.90;;
5199;SDS011;2619;47.868;11.892;2022-08-06T04:12:01;5.37;;;3.27;;
5199;SDS011;2619;47.868;11.892;2022-08-06T04:14:28;4.67;;;3.53;;
5199;SDS011;2619;47.868;11.892;2022-08-06T04:16:55;3.90;;;3.37;;
5199;SDS011;2619;47.868;11.892;2022-08-06T04:19:22;4.80;;;3.70;;
5199;SDS011;2619;47.868;11.892;2022-08-06T04:21:48;4.60;;;4.20;;
5199;SDS011;2619;47.868;11.892;2022-08-06T04:24:14;4.43;;;3.43;;
5199;SDS011;2619;47.868;11.892;2022-08-06T04:26:41;5.00;;;3.90;;
5199;SDS011;2619;47.868;11.892;2022-08-06T04:29:09;3.90;;;3.30;;
5199;SDS011;2619;47.868;11.892;2022-08-06T04:31:37;4.00;;;3.40;;
5199;SDS011;2619;47.868;11.892;2022-08-06T04:34:04;4.43;;;3.40;;
5199;SDS011;2619;47.868;11.892;2022-08-06T04:36:30;4.40;;;3.47;;
5199;SDS011;2619;47.868;11.892;2022-08-06T04:38:56;4.30;;;3.53;;
5199;SDS011;2619;47.868;11.892;2022-08-06T04:41:23;4.40;;;3.57;;
5199;SDS011;2619;47.868;11.892;2022-08-06T04:43:50;4.40;;;3.87;;
5199;SDS011;2619;47.868;11.892;2022-08-06T04:46:16;4.70;;;3.70;;
5199;SDS011;2619;47.868;11.892;2022-08-06T04:48:42;4.40;;;3.93;;
5199;SDS011;2619;47.868;11.892;2022-08-06T04:51:08;4.17;;;3.53;;
5199;SDS011;2619;47.868;11.892;2022-08-06T04:53:37;3.90;;;3.30;;
5199;SDS011;2619;47.868;11.892;2022-08-06T04:56:05;5.23;;;4.70;;
5199;SDS011;2619;47.868;11.892;2022-08-06T04:58:31;4.17;;;3.70;;
5199;SDS011;2619;47.868;11.892;2022-08-06T05:00:58;5.10;;;4.40;;
5199;SDS011;2619;47.868;11.892;2022-08-06T05:03:23;5.70;;;4.40;;
5199;SDS011;2619;47.868;11.892;2022-08-06T05:08:28;6.70;;;4.67;;
5199;SDS011;2619;47.868;11.892;2022-08-06T05:10:56;6.30;;;4.40;;
5199;SDS011;2619;47.868;11.892;2022-08-06T05:13:29;6.50;;;4.77;;
5199;SDS011;2619;47.868;11.892;2022-08-06T05:15:58;6.57;;;4.37;;
5199;SDS011;2619;47.868;11.892;2022-08-06T05:18:35;4.37;;;3.87;;
5199;SDS011;2619;47.868;11.892;2022-08-06T05:21:04;5.33;;;3.90;;
5199;SDS011;2619;47.868;11.892;2022-08-06T05:23:49;7.80;;;5.03;;
5199;SDS011;2619;47.868;11.892;2022-08-06T05:26:18;5.70;;;5.00;;
5199;SDS011;2619;47.868;11.892;2022-08-06T05:28:45;6.13;;;4.40;;
5199;SDS011;2619;47.868;11.892;2022-08-06T05:31:10;5.30;;;4.80;;
5199;SDS011;2619;47.868;11.892;2022-08-06T05:33:36;6.60;;;4.80;;
5199;SDS011;2619;47.868;11.892;2022-08-06T05:36:04;4.60;;;4.20;;
5199;SDS011;2619;47.868;11.892;2022-08-06T05:38:32;5.73;;;4.37;;
5199;SDS011;2619;47.868;11.892;2022-08-06T05:41:01;7.27;;;4.80;;
5199;SDS011;2619;47.868;11.892;2022-08-06T05:43:27;5.70;;;5.10;;
5199;SDS011;2619;47.868;11.892;2022-08-06T05:45:54;5.57;;;4.97;;
5199;SDS011;2619;47.868;11.892;2022-08-06T05:48:22;5.10;;;4.60;;
5199;SDS011;2619;47.868;11.892;2022-08-06T05:50:50;6.13;;;5.53;;
5199;SDS011;2619;47.868;11.892;2022-08-06T05:53:31;7.03;;;5.87;;
5199;SDS011;2619;47.868;11.892;2022-08-06T05:56:05;6.20;;;5.60;;
5199;SDS011;2619;47.868;11.892;2022-08-06T05:58:39;6.40;;;5.80;;
5199;SDS011;2619;47.868;11.892;2022-08-06T06:01:09;5.83;;;5.23;;
5199;SDS011;2619;47.868;11.892;2022-08-06T06:03:38;6.13;;;5.23;;
5199;SDS011;2619;47.868;11.892;2022-08-06T06:06:04;6.77;;;6.07;;
5199;SDS011;2619;47.868;11.892;2022-08-06T06:08:30;6.83;;;6.13;;
5199;SDS011;2619;47.868;11.892;2022-08-06T06:10:56;7.57;;;5.90;;
5199;SDS011;2619;47.868;11.892;2022-08-06T06:13:22;7.17;;;6.07;;
5199;SDS011;2619;47.868;11.892;2022-08-06T06:16:11;8.30;;;6.73;;
5199;SDS011;2619;47.868;11.892;2022-08-06T06:18:46;7.73;;;6.90;;
5199;SDS011;2619;47.868;11.892;2022-08-06T06:21:28;7.80;;;6.60;;
5199;SDS011;2619;47.868;11.892;2022-08-06T06:24:25;9.57;;;7.80;;
5199;SDS011;2619;47.868;11.892;2022-08-06T06:27:08;8.57;;;7.67;;
5199;SDS011;2619;47.868;11.892;2022-08-06T06:29:44;9.80;;;8.17;;
5199;SDS011;2619;47.868;11.892;2022-08-06T06:32:32;10.33;;;8.77;;
5199;SDS011;2619;47.868;11.892;2022-08-06T06:37:52;9.40;;;7.50;;
5199;SDS011;2619;47.868;11.892;2022-08-06T06:48:43;12.33;;;11.10;;
5199;SDS011;2619;47.868;11.892;2022-08-06T06:51:23;12.03;;;10.77;;
5199;SDS011;2619;47.868;11.892;2022-08-06T06:53:56;12.73;;;11.43;;
5199;SDS011;2619;47.868;11.892;2022-08-06T06:56:24;14.73;;;12.20;;
5199;SDS011;2619;47.868;11.892;2022-08-06T06:58:58;14.40;;;13.00;;
5199;SDS011;2619;47.868;11.892;2022-08-06T07:01:28;14.60;;;12.80;;
5199;SDS011;2619;47.868;11.892;2022-08-06T07:03:59;14.40;;;12.50;;
5199;SDS011;2619;47.868;11.892;2022-08-06T07:06:30;13.90;;;12.40;;
5199;SDS011;2619;47.868;11.892;2022-08-06T07:08:57;12.43;;;11.13;;
5199;SDS011;2619;47.868;11.892;2022-08-06T07:11:24;13.10;;;11.80;;
5199;SDS011;2619;47.868;11.892;2022-08-06T07:13:52;12.93;;;11.17;;
5199;SDS011;2619;47.868;11.892;2022-08-06T07:16:22;12.30;;;10.97;;
5199;SDS011;2619;47.868;11.892;2022-08-06T07:18:49;11.27;;;10.07;;
5199;SDS011;2619;47.868;11.892;2022-08-06T07:21:16;12.07;;;9.70;;
5199;SDS011;2619;47.868;11.892;2022-08-06T07:23:44;11.50;;;10.30;;
5199;SDS011;2619;47.868;11.892;2022-08-06T07:26:12;9.33;;;7.87;;
5199;SDS011;2619;47.868;11.892;2022-08-06T07:28:39;8.70;;;7.23;;
5199;SDS011;2619;47.868;11.892;2022-08-06T07:31:07;7.83;;;6.80;;
5199;SDS011;2619;47.868;11.892;2022-08-06T07:33:33;6.17;;;5.27;;
5199;SDS011;2619;47.868;11.892;2022-08-06T07:36:00;6.20;;;5.37;;
5199;SDS011;2619;47.868;11.892;2022-08-06T07:38:28;4.73;;;4.30;;
5199;SDS011;2619;47.868;11.892;2022-08-06T07:40:58;3.50;;;2.80;;
5199;SDS011;2619;47.868;11.892;2022-08-06T07:43:31;3.17;;;2.87;;
5199;SDS011;2619;47.868;11.892;2022-08-06T07:46:08;3.80;;;3.47;;
5199;SDS011;2619;47.868;11.892;2022-08-06T07:48:40;4.20;;;3.80;;
5199;SDS011;2619;47.868;11.892;2022-08-06T07:51:11;4.23;;;3.70;;
5199;SDS011;2619;47.868;11.892;2022-08-06T07:53:38;4.60;;;3.63;;
5199;SDS011;2619;47.868;11.892;2022-08-06T07:56:06;3.83;;;3.43;;
5199;SDS011;2619;47.868;11.892;2022-08-06T07:58:33;3.97;;;3.50;;
5199;SDS011;2619;47.868;11.892;2022-08-06T08:01:02;5.10;;;3.63;;
5199;SDS011;2619;47.868;11.892;2022-08-06T08:03:28;3.80;;;3.50;;
5199;SDS011;2619;47.868;11.892;2022-08-06T08:06:14;3.80;;;3.23;;
5199;SDS011;2619;47.868;11.892;2022-08-06T08:08:44;6.03;;;3.57;;
5199;SDS011;2619;47.868;11.892;2022-08-06T08:11:12;4.33;;;3.93;;
5199;SDS011;2619;47.868;11.892;2022-08-06T08:13:39;4.90;;;4.40;;
5199;SDS011;2619;47.868;11.892;2022-08-06T08:16:07;5.00;;;4.60;;
5199;SDS011;2619;47.868;11.892;2022-08-06T08:18:34;5.90;;;5.30;;
5199;SDS011;2619;47.868;11.892;2022-08-06T08:21:01;6.80;;;6.20;;
5199;SDS011;2619;47.868;11.892;2022-08-06T08:23:28;7.90;;;7.10;;
5199;SDS011;2619;47.868;11.892;2022-08-06T08:25:58;8.27;;;7.47;;
5199;SDS011;2619;47.868;11.892;2022-08-06T08:28:26;11.23;;;10.13;;
5199;SDS011;2619;47.868;11.892;2022-08-06T08:30:51;12.20;;;10.87;;
5199;SDS011;2619;47.868;11.892;2022-08-06T08:33:18;10.77;;;9.87;;
5199;SDS011;2619;47.868;11.892;2022-08-06T08:35:48;10.40;;;9.60;;
5199;SDS011;2619;47.868;11.892;2022-08-06T08:38:13;12.20;;;11.20;;
5199;SDS011;2619;47.868;11.892;2022-08-06T08:40:39;12.57;;;11.37;;
5199;SDS011;2619;47.868;11.892;2022-08-06T08:43:05;11.77;;;10.77;;
5199;SDS011;2619;47.868;11.892;2022-08-06T08:45:33;12.40;;;11.40;;
5199;SDS011;2619;47.868;11.892;2022-08-06T08:47:59;11.80;;;10.80;;
5199;SDS011;2619;47.868;11.892;2022-08-06T08:50:29;12.20;;;11.27;;
5199;SDS011;2619;47.868;11.892;2022-08-06T08:53:00;10.23;;;9.33;;
5199;SDS011;2619;47.868;11.892;2022-08-06T08:55:30;12.03;;;11.03;;
5199;SDS011;2619;47.868;11.892;2022-08-06T08:57:56;14.10;;;12.90;;
5199;SDS011;2619;47.868;11.892;2022-08-06T09:00:23;12.90;;;11.80;;
5199;SDS011;2619;47.868;11.892;2022-08-06T09:02:49;14.17;;;12.70;;
5199;SDS011;2619;47.868;11.892;2022-08-06T09:05:15;12.50;;;11.40;;
5199;SDS011;2619;47.868;11.892;2022-08-06T09:07:42;12.40;;;11.10;;
5199;SDS011;2619;47.868;11.892;2022-08-06T09:10:08;14.00;;;12.87;;
5199;SDS011;2619;47.868;11.892;2022-08-06T09:12:34;13.07;;;11.87;;
5199;SDS011;2619;47.868;11.892;2022-08-06T09:15:00;12.80;;;11.80;;
5199;SDS011;2619;47.868;11.892;2022-08-06T09:17:28;12.30;;;11.10;;
5199;SDS011;2619;47.868;11.892;2022-08-06T09:19:54;11.53;;;10.53;;
5199;SDS011;2619;47.868;11.892;2022-08-06T09:22:20;11.03;;;10.03;;
5199;SDS011;2619;47.868;11.892;2022-08-06T09:24:46;11.43;;;10.43;;
5199;SDS011;2619;47.868;11.892;2022-08-06T09:27:13;10.70;;;9.63;;
5199;SDS011;2619;47.868;11.892;2022-08-06T09:29:50;10.80;;;9.90;;
5199;SDS011;2619;47.868;11.892;2022-08-06T09:37:45;9.90;;;8.80;;
5199;SDS011;2619;47.868;11.892;2022-08-06T09:40:15;10.03;;;9.17;;
5199;SDS011;2619;47.868;11.892;2022-08-06T09:42:46;9.57;;;8.77;;
5199;SDS011;2619;47.868;11.892;2022-08-06T09:45:16;7.93;;;7.23;;
5199;SDS011;2619;47.868;11.892;2022-08-06T09:47:47;8.20;;;6.80;;
5199;SDS011;2619;47.868;11.892;2022-08-06T09:50:42;7.37;;;6.67;;
5199;SDS011;2619;47.868;11.892;2022-08-06T09:53:09;6.97;;;6.40;;
5199;SDS011;2619;47.868;11.892;2022-08-06T09:55:36;7.17;;;6.50;;
5199;SDS011;2619;47.868;11.892;2022-08-06T09:58:02;6.63;;;5.00;;
5199;SDS011;2619;47.868;11.892;2022-08-06T10:00:29;5.00;;;4.60;;
5199;SDS011;2619;47.868;11.892;2022-08-06T10:02:57;5.03;;;4.60;;
5199;SDS011;2619;47.868;11.892;2022-08-06T10:05:24;4.70;;;4.30;;
5199;SDS011;2619;47.868;11.892;2022-08-06T10:08:09;5.10;;;4.60;;
5199;SDS011;2619;47.868;11.892;2022-08-06T10:13:19;5.07;;;4.57;;
5199;SDS011;2619;47.868;11.892;2022-08-06T10:15:46;5.53;;;4.40;;
5199;SDS011;2619;47.868;11.892;2022-08-06T10:21:12;7.13;;;5.07;;
5199;SDS011;2619;47.868;11.892;2022-08-06T10:23:41;5.23;;;4.77;;
5199;SDS011;2619;47.868;11.892;2022-08-06T10:26:14;5.50;;;5.00;;
5199;SDS011;2619;47.868;11.892;2022-08-06T10:28:43;6.10;;;5.50;;
5199;SDS011;2619;47.868;11.892;2022-08-06T10:31:11;5.80;;;5.30;;
5199;SDS011;2619;47.868;11.892;2022-08-06T10:36:11;6.53;;;5.93;;
5199;SDS011;2619;47.868;11.892;2022-08-06T10:38:40;5.57;;;4.97;;
5199;SDS011;2619;47.868;11.892;2022-08-06T10:41:09;5.80;;;5.30;;
5199;SDS011;2619;47.868;11.892;2022-08-06T10:43:36;7.40;;;5.80;;
5199;SDS011;2619;47.868;11.892;2022-08-06T10:46:06;5.53;;;5.03;;
5199;SDS011;2619;47.868;11.892;2022-08-06T10:48:35;6.00;;;5.50;;
5199;SDS011;2619;47.868;11.892;2022-08-06T10:51:02;5.70;;;5.20;;
5199;SDS011;2619;47.868;11.892;2022-08-06T10:53:32;6.47;;;5.87;;
5199;SDS011;2619;47.868;11.892;2022-08-06T10:56:02;7.20;;;6.60;;
5199;SDS011;2619;47.868;11.892;2022-08-06T10:58:33;7.43;;;6.83;;
5199;SDS011;2619;47.868;11.892;2022-08-06T11:01:00;8.20;;;7.50;;
5199;SDS011;2619;47.868;11.892;2022-08-06T11:09:15;9.33;;;8.53;;
5199;SDS011;2619;47.868;11.892;2022-08-06T11:15:05;10.13;;;9.23;;
5199;SDS011;2619;47.868;11.892;2022-08-06T11:17:51;12.13;;;10.90;;
5199;SDS011;2619;47.868;11.892;2022-08-06T11:23:20;10.53;;;9.63;;
5199;SDS011;2619;47.868;11.892;2022-08-06T11:25:52;10.90;;;10.00;;
5199;SDS011;2619;47.868;11.892;2022-08-06T11:30:56;10.50;;;9.60;;
5199;SDS011;2619;47.868;11.892;2022-08-06T11:35:59;10.23;;;9.33;;
5199;SDS011;2619;47.868;11.892;2022-08-06T11:41:18;12.40;;;11.30;;
5199;SDS011;2619;47.868;11.892;2022-08-06T11:46:31;11.50;;;10.50;;
5199;SDS011;2619;47.868;11.892;2022-08-06T11:59:36;9.80;;;9.00;;
5199;SDS011;2619;47.868;11.892;2022-08-06T12:07:41;11.80;;;10.80;;
5199;SDS011;2619;47.868;11.892;2022-08-06T12:10:10;12.13;;;11.07;;
5199;SDS011;2619;47.868;11.892;2022-08-06T12:17:59;12.63;;;11.53;;
5199;SDS011;2619;47.868;11.892;2022-08-06T12:23:08;13.10;;;11.90;;
5199;SDS011;2619;47.868;11.892;2022-08-06T12:25:38;12.77;;;11.60;;
5199;SDS011;2619;47.868;11.892;2022-08-06T12:28:06;12.03;;;10.93;;
5199;SDS011;2619;47.868;11.892;2022-08-06T12:33:12;9.10;;;8.30;;
5199;SDS011;2619;47.868;11.892;2022-08-06T12:38:28;12.27;;;10.00;;
5199;SDS011;2619;47.868;11.892;2022-08-06T12:40:56;10.80;;;9.70;;
5199;SDS011;2619;47.868;11.892;2022-08-06T12:43:23;11.23;;;10.20;;
5199;SDS011;2619;47.868;11.892;2022-08-06T12:45:55;11.47;;;10.10;;
5199;SDS011;2619;47.868;11.892;2022-08-06T12:48:26;10.00;;;9.00;;
5199;SDS011;2619;47.868;11.892;2022-08-06T12:51:08;10.30;;;9.43;;
5199;SDS011;2619;47.868;11.892;2022-08-06T12:53:58;10.97;;;9.93;;
5199;SDS011;2619;47.868;11.892;2022-08-06T12:56:28;10.83;;;9.93;;
5199;SDS011;2619;47.868;11.892;2022-08-06T12:58:59;11.63;;;10.57;;
5199;SDS011;2619;47.868;11.892;2022-08-06T13:01:28;12.60;;;11.50;;
5199;SDS011;2619;47.868;11.892;2022-08-06T13:03:55;13.27;;;12.17;;
5199;SDS011;2619;47.868;11.892;2022-08-06T13:06:25;12.50;;;11.40;;
5199;SDS011;2619;47.868;11.892;2022-08-06T13:08:52;11.93;;;10.97;;
5199;SDS011;2619;47.868;11.892;2022-08-06T13:11:19;11.93;;;10.87;;
5199;SDS011;2619;47.868;11.892;2022-08-06T13:13:50;11.47;;;10.47;;
5199;SDS011;2619;47.868;11.892;2022-08-06T13:16:16;11.00;;;10.10;;
5199;SDS011;2619;47.868;11.892;2022-08-06T13:19:01;11.27;;;10.37;;
5199;SDS011;2619;47.868;11.892;2022-08-06T13:21:29;10.60;;;9.60;;
5199;SDS011;2619;47.868;11.892;2022-08-06T13:23:55;11.07;;;10.17;;
5199;SDS011;2619;47.868;11.892;2022-08-06T13:31:36;12.77;;;11.67;;
5199;SDS011;2619;47.868;11.892;2022-08-06T13:34:06;9.90;;;9.10;;
5199;SDS011;2619;47.868;11.892;2022-08-06T13:36:34;13.33;;;11.63;;
5199;SDS011;2619;47.868;11.892;2022-08-06T13:42:02;12.10;;;11.10;;
5199;SDS011;2619;47.868;11.892;2022-08-06T13:44:31;11.80;;;10.80;;
5199;SDS011;2619;47.868;11.892;2022-08-06T13:46:58;11.50;;;10.57;;
5199;SDS011;2619;47.868;11.892;2022-08-06T13:49:24;11.20;;;10.30;;
5199;SDS011;2619;47.868;11.892;2022-08-06T13:51:50;17.43;;;11.77;;
5199;SDS011;2619;47.868;11.892;2022-08-06T13:54:16;11.60;;;10.60;;
5199;SDS011;2619;47.868;11.892;2022-08-06T13:56:42;12.30;;;11.30;;
5199;SDS011;2619;47.868;11.892;2022-08-06T13:59:08;11.47;;;10.57;;
5199;SDS011;2619;47.868;11.892;2022-08-06T14:01:34;11.10;;;10.20;;
5199;SDS011;2619;47.868;11.892;2022-08-06T14:03:59;11.73;;;10.73;;
5199;SDS011;2619;47.868;11.892;2022-08-06T14:06:25;10.40;;;9.30;;
5199;SDS011;2619;47.868;11.892;2022-08-06T14:08:50;11.40;;;10.40;;
5199;SDS011;2619;47.868;11.892;2022-08-06T14:11:16;10.13;;;9.23;;
5199;SDS011;2619;47.868;11.892;2022-08-06T14:13:42;10.30;;;9.50;;
5199;SDS011;2619;47.868;11.892;2022-08-06T14:16:07;11.33;;;10.40;;
5199;SDS011;2619;47.868;11.892;2022-08-06T14:18:33;11.13;;;10.33;;
5199;SDS011;2619;47.868;11.892;2022-08-06T14:20:58;10.20;;;9.40;;
5199;SDS011;2619;47.868;11.892;2022-08-06T14:23:25;11.20;;;10.20;;
5199;SDS011;2619;47.868;11.892;2022-08-06T14:25:50;10.87;;;9.77;;
5199;SDS011;2619;47.868;11.892;2022-08-06T14:28:16;11.30;;;10.40;;
5199;SDS011;2619;47.868;11.892;2022-08-06T14:30:42;9.93;;;9.13;;
5199;SDS011;2619;47.868;11.892;2022-08-06T14:33:08;11.97;;;10.97;;
5199;SDS011;2619;47.868;11.892;2022-08-06T14:35:34;12.27;;;11.27;;
5199;SDS011;2619;47.868;11.892;2022-08-06T14:38:02;11.83;;;10.90;;
5199;SDS011;2619;47.868;11.892;2022-08-06T14:40:29;12.53;;;11.53;;
5199;SDS011;2619;47.868;11.892;2022-08-06T14:43:15;12.77;;;11.77;;
5199;SDS011;2619;47.868;11.892;2022-08-06T14:46:00;12.90;;;11.90;;
5199;SDS011;2619;47.868;11.892;2022-08-06T14:48:26;13.20;;;12.10;;
5199;SDS011;2619;47.868;11.892;2022-08-06T14:50:52;13.10;;;12.00;;
5199;SDS011;2619;47.868;11.892;2022-08-06T14:53:17;12.20;;;11.20;;
5199;SDS011;2619;47.868;11.892;2022-08-06T14:55:43;13.47;;;12.37;;
5199;SDS011;2619;47.868;11.892;2022-08-06T14:58:09;13.13;;;11.97;;
5199;SDS011;2619;47.868;11.892;2022-08-06T15:00:36;13.40;;;12.20;;
5199;SDS011;2619;47.868;11.892;2022-08-06T15:03:02;13.00;;;12.00;;
5199;SDS011;2619;47.868;11.892;2022-08-06T15:05:27;14.63;;;13.33;;
5199;SDS011;2619;47.868;11.892;2022-08-06T15:07:53;15.27;;;14.07;;
5199;SDS011;2619;47.868;11.892;2022-08-06T15:10:18;14.33;;;13.13;;
5199;SDS011;2619;47.868;11.892;2022-08-06T15:12:44;15.13;;;13.93;;
5199;SDS011;2619;47.868;11.892;2022-08-06T15:15:09;14.70;;;13.50;;
5199;SDS011;2619;47.868;11.892;2022-08-06T15:17:35;13.47;;;12.37;;
5199;SDS011;2619;47.868;11.892;2022-08-06T15:20:02;15.07;;;13.87;;
5199;SDS011;2619;47.868;11.892;2022-08-06T15:22:28;14.20;;;13.10;;
5199;SDS011;2619;47.868;11.892;2022-08-06T15:24:54;14.70;;;13.40;;
5199;SDS011;2619;47.868;11.892;2022-08-06T15:27:19;14.57;;;13.37;;
5199;SDS011;2619;47.868;11.892;2022-08-06T15:29:45;13.73;;;12.63;;
5199;SDS011;2619;47.868;11.892;2022-08-06T15:32:11;14.57;;;13.10;;
5199;SDS011;2619;47.868;11.892;2022-08-06T15:34:37;11.77;;;10.87;;
5199;SDS011;2619;47.868;11.892;2022-08-06T15:37:03;13.97;;;12.77;;
5199;SDS011;2619;47.868;11.892;2022-08-06T15:39:30;13.73;;;12.63;;
5199;SDS011;2619;47.868;11.892;2022-08-06T15:41:57;12.93;;;11.83;;
5199;SDS011;2619;47.868;11.892;2022-08-06T15:44:23;11.90;;;11.00;;
5199;SDS011;2619;47.868;11.892;2022-08-06T15:46:48;12.80;;;11.70;;
5199;SDS011;2619;47.868;11.892;2022-08-06T15:49:14;12.27;;;11.27;;
5199;SDS011;2619;47.868;11.892;2022-08-06T15:51:39;15.00;;;13.80;;
5199;SDS011;2619;47.868;11.892;2022-08-06T15:54:05;13.47;;;12.27;;
5199;SDS011;2619;47.868;11.892;2022-08-06T15:56:31;15.33;;;14.00;;
5199;SDS011;2619;47.868;11.892;2022-08-06T15:58:57;13.37;;;12.17;;
5199;SDS011;2619;47.868;11.892;2022-08-06T16:01:23;12.30;;;11.23;;
5199;SDS011;2619;47.868;11.892;2022-08-06T16:03:49;12.23;;;11.20;;
5199;SDS011;2619;47.868;11.892;2022-08-06T16:06:15;12.60;;;11.50;;
5199;SDS011;2619;47.868;11.892;2022-08-06T16:08:40;13.60;;;12.50;;
5199;SDS011;2619;47.868;11.892;2022-08-06T16:11:06;14.00;;;12.80;;
5199;SDS011;2619;47.868;11.892;2022-08-06T16:13:33;14.53;;;13.33;;
5199;SDS011;2619;47.868;11.892;2022-08-06T16:15:59;15.90;;;14.57;;
5199;SDS011;2619;47.868;11.892;2022-08-06T16:18:25;14.87;;;13.67;;
5199;SDS011;2619;47.868;11.892;2022-08-06T16:20:54;14.03;;;12.80;;
5199;SDS011;2619;47.868;11.892;2022-08-06T16:23:20;13.90;;;12.80;;
5199;SDS011;2619;47.868;11.892;2022-08-06T16:25:47;14.00;;;12.80;;
5199;SDS011;2619;47.868;11.892;2022-08-06T16:28:12;15.10;;;13.80;;
5199;SDS011;2619;47.868;11.892;2022-08-06T16:30:38;14.80;;;13.60;;
5199;SDS011;2619;47.868;11.892;2022-08-06T16:33:04;15.07;;;13.77;;
5199;SDS011;2619;47.868;11.892;2022-08-06T16:35:29;15.13;;;13.83;;
5199;SDS011;2619;47.868;11.892;2022-08-06T16:37:55;15.17;;;13.77;;
5199;SDS011;2619;47.868;11.892;2022-08-06T16:40:22;15.77;;;14.47;;